sensor_id;sensor_type;location;lat;lon;timestamp;pressure;altitude;pressure_sealevel;temperature;humidity
57068;BME280;43391;47.448;18.904;2022-07-06T00:02:08;99665.06;;;17.10;92.50
57068;BME280;43391;47.448;18.904;2022-07-06T00:04:34;99663.50;;;17.08;93.17
57068;BME280;43391;47.448;18.904;2022-07-06T00:06:59;99656.00;;;17.03;93.14
57068;BME280;43391;47.448;18.904;2022-07-06T00:09:24;99670.06;;;17.02;93.28
57068;BME280;43391;47.448;18.904;2022-07-06T00:11:50;99669.13;;;17.03;93.65
57068;BME280;43391;47.448;18.904;2022-07-06T00:14:18;99656.94;;;17.02;93.81
57068;BME280;43391;47.448;18.904;2022-07-06T00:16:50;99665.13;;;16.97;93.92
57068;BME280;43391;47.448;18.904;2022-07-06T00:19:15;99666.09;;;16.96;94.15
57068;BME280;43391;47.448;18.904;2022-07-06T00:21:40;99662.78;;;16.94;94.07
57068;BME280;43391;47.448;18.904;2022-07-06T00:24:06;99660.38;;;16.91;94.30
57068;BME280;43391;47.448;18.904;2022-07-06T00:26:32;99655.13;;;16.91;95.02
57068;BME280;43391;47.448;18.904;2022-07-06T00:28:57;99654.16;;;16.92;94.91
57068;BME280;43391;47.448;18.904;2022-07-06T00:31:23;99654.16;;;16.92;94.57
57068;BME280;43391;47.448;18.904;2022-07-06T00:33:48;99654.44;;;16.89;94.30
57068;BME280;43391;47.448;18.904;2022-07-06T00:36:14;99651.53;;;16.81;94.36
57068;BME280;43391;47.448;18.904;2022-07-06T00:38:39;99663.09;;;16.78;95.05
57068;BME280;43391;47.448;18.904;2022-07-06T00:41:04;99653.69;;;16.76;95.26
57068;BME280;43391;47.448;18.904;2022-07-06T00:43:46;99652.00;;;16.74;95.51
57068;BME280;43391;47.448;18.904;2022-07-06T00:46:12;99649.38;;;16.74;95.35
57068;BME280;43391;47.448;18.904;2022-07-06T00:48:38;99649.28;;;16.76;94.90
57068;BME280;43391;47.448;18.904;2022-07-06T00:51:03;99639.88;;;16.73;94.89
57068;BME280;43391;47.448;18.904;2022-07-06T00:53:29;99641.75;;;16.71;95.00
57068;BME280;43391;47.448;18.904;2022-07-06T00:55:55;99640.19;;;16.69;95.31
57068;BME280;43391;47.448;18.904;2022-07-06T00:58:26;99635.19;;;16.66;95.12
57068;BME280;43391;47.448;18.904;2022-07-06T01:00:51;99636.38;;;16.62;95.13
57068;BME280;43391;47.448;18.904;2022-07-06T01:03:17;99628.13;;;16.55;95.54
57068;BME280;43391;47.448;18.904;2022-07-06T01:05:43;99624.81;;;16.53;95.74
57068;BME280;43391;47.448;18.904;2022-07-06T01:08:09;99635.28;;;16.53;95.82
57068;BME280;43391;47.448;18.904;2022-07-06T01:10:35;99634.69;;;16.49;95.86
57068;BME280;43391;47.448;18.904;2022-07-06T01:13:00;99641.50;;;16.52;96.14
57068;BME280;43391;47.448;18.904;2022-07-06T01:15:26;99631.72;;;16.54;96.29
57068;BME280;43391;47.448;18.904;2022-07-06T01:17:52;99637.34;;;16.60;96.71
57068;BME280;43391;47.448;18.904;2022-07-06T01:20:26;99651.88;;;16.65;96.65
57068;BME280;43391;47.448;18.904;2022-07-06T01:22:53;99646.63;;;16.65;96.39
57068;BME280;43391;47.448;18.904;2022-07-06T01:25:20;99654.84;;;16.71;96.35
57068;BME280;43391;47.448;18.904;2022-07-06T01:27:46;99653.78;;;16.74;95.86
57068;BME280;43391;47.448;18.904;2022-07-06T01:30:14;99652.22;;;16.71;95.12
57068;BME280;43391;47.448;18.904;2022-07-06T01:32:41;99655.00;;;16.70;95.56
57068;BME280;43391;47.448;18.904;2022-07-06T01:35:08;99656.75;;;16.69;95.59
57068;BME280;43391;47.448;18.904;2022-07-06T01:37:35;99658.53;;;16.69;95.71
57068;BME280;43391;47.448;18.904;2022-07-06T01:40:01;99652.59;;;16.67;95.16
57068;BME280;43391;47.448;18.904;2022-07-06T01:42:27;99646.16;;;16.59;95.16
57068;BME280;43391;47.448;18.904;2022-07-06T01:44:53;99649.94;;;16.55;95.66
57068;BME280;43391;47.448;18.904;2022-07-06T01:47:18;99651.97;;;16.52;95.68
57068;BME280;43391;47.448;18.904;2022-07-06T01:49:44;99652.78;;;16.52;95.43
57068;BME280;43391;47.448;18.904;2022-07-06T01:52:09;99643.47;;;16.48;96.02
57068;BME280;43391;47.448;18.904;2022-07-06T01:54:38;99655.03;;;16.45;96.08
57068;BME280;43391;47.448;18.904;2022-07-06T01:57:03;99655.59;;;16.38;96.21
57068;BME280;43391;47.448;18.904;2022-07-06T01:59:29;99656.44;;;16.38;96.28
57068;BME280;43391;47.448;18.904;2022-07-06T02:01:54;99663.69;;;16.34;96.90
57068;BME280;43391;47.448;18.904;2022-07-06T02:04:27;99668.75;;;16.25;97.17
57068;BME280;43391;47.448;18.904;2022-07-06T02:06:53;99672.81;;;16.29;97.88
57068;BME280;43391;47.448;18.904;2022-07-06T02:09:18;99670.19;;;16.29;97.88
57068;BME280;43391;47.448;18.904;2022-07-06T02:11:43;99677.25;;;16.28;97.58
57068;BME280;43391;47.448;18.904;2022-07-06T02:14:09;99674.13;;;16.23;97.20
57068;BME280;43391;47.448;18.904;2022-07-06T02:16:35;99676.50;;;16.26;97.41
57068;BME280;43391;47.448;18.904;2022-07-06T02:19:01;99684.25;;;16.28;97.49
57068;BME280;43391;47.448;18.904;2022-07-06T02:21:27;99678.31;;;16.26;97.40
57068;BME280;43391;47.448;18.904;2022-07-06T02:23:52;99687.81;;;16.27;98.16
57068;BME280;43391;47.448;18.904;2022-07-06T02:26:17;99685.91;;;16.29;98.09
57068;BME280;43391;47.448;18.904;2022-07-06T02:28:43;99686.03;;;16.27;98.07
57068;BME280;43391;47.448;18.904;2022-07-06T02:31:10;99669.38;;;16.28;97.35
57068;BME280;43391;47.448;18.904;2022-07-06T02:33:38;99666.75;;;16.28;97.73
57068;BME280;43391;47.448;18.904;2022-07-06T02:36:04;99664.25;;;16.27;97.48
57068;BME280;43391;47.448;18.904;2022-07-06T02:38:38;99673.06;;;16.26;97.61
57068;BME280;43391;47.448;18.904;2022-07-06T02:41:03;99675.78;;;16.24;97.81
57068;BME280;43391;47.448;18.904;2022-07-06T02:43:29;99670.75;;;16.21;97.87
57068;BME280;43391;47.448;18.904;2022-07-06T02:45:54;99676.75;;;16.23;97.95
57068;BME280;43391;47.448;18.904;2022-07-06T02:48:19;99680.91;;;16.26;98.27
57068;BME280;43391;47.448;18.904;2022-07-06T02:50:49;99676.28;;;16.29;98.56
57068;BME280;43391;47.448;18.904;2022-07-06T02:53:14;99684.16;;;16.29;98.45
57068;BME280;43391;47.448;18.904;2022-07-06T02:55:39;99691.56;;;16.36;98.54
57068;BME280;43391;47.448;18.904;2022-07-06T02:58:05;99695.00;;;16.36;98.52
57068;BME280;43391;47.448;18.904;2022-07-06T03:00:30;99695.72;;;16.38;98.25
57068;BME280;43391;47.448;18.904;2022-07-06T03:02:56;99697.84;;;16.33;97.84
57068;BME280;43391;47.448;18.904;2022-07-06T03:05:21;99706.66;;;16.32;97.83
57068;BME280;43391;47.448;18.904;2022-07-06T03:07:47;99704.75;;;16.34;98.10
57068;BME280;43391;47.448;18.904;2022-07-06T03:10:12;99715.97;;;16.36;98.18
57068;BME280;43391;47.448;18.904;2022-07-06T03:12:37;99714.06;;;16.38;98.14
57068;BME280;43391;47.448;18.904;2022-07-06T03:15:03;99724.53;;;16.38;98.13
57068;BME280;43391;47.448;18.904;2022-07-06T03:17:29;99709.03;;;16.35;98.05
57068;BME280;43391;47.448;18.904;2022-07-06T03:19:54;99712.84;;;16.31;97.59
57068;BME280;43391;47.448;18.904;2022-07-06T03:22:19;99719.34;;;16.25;97.71
57068;BME280;43391;47.448;18.904;2022-07-06T03:24:45;99722.31;;;16.20;97.78
57068;BME280;43391;47.448;18.904;2022-07-06T03:27:11;99730.28;;;16.19;97.62
57068;BME280;43391;47.448;18.904;2022-07-06T03:29:36;99728.72;;;16.16;97.32
57068;BME280;43391;47.448;18.904;2022-07-06T03:32:01;99729.16;;;16.10;97.36
57068;BME280;43391;47.448;18.904;2022-07-06T03:34:27;99726.03;;;16.05;97.60
57068;BME280;43391;47.448;18.904;2022-07-06T03:36:53;99725.84;;;15.95;97.92
57068;BME280;43391;47.448;18.904;2022-07-06T03:39:18;99717.16;;;15.94;98.14
57068;BME280;43391;47.448;18.904;2022-07-06T03:41:44;99720.75;;;15.93;98.23
57068;BME280;43391;47.448;18.904;2022-07-06T03:44:09;99726.03;;;15.92;98.46
57068;BME280;43391;47.448;18.904;2022-07-06T03:46:34;99720.06;;;15.90;98.49
57068;BME280;43391;47.448;18.904;2022-07-06T03:49:00;99727.66;;;15.94;99.46
57068;BME280;43391;47.448;18.904;2022-07-06T03:51:25;99719.44;;;15.99;99.34
57068;BME280;43391;47.448;18.904;2022-07-06T03:53:50;99720.16;;;16.01;98.43
57068;BME280;43391;47.448;18.904;2022-07-06T03:56:16;99724.84;;;16.09;98.25
57068;BME280;43391;47.448;18.904;2022-07-06T03:58:55;99723.25;;;16.19;97.90
57068;BME280;43391;47.448;18.904;2022-07-06T04:01:20;99727.94;;;16.27;97.33
57068;BME280;43391;47.448;18.904;2022-07-06T04:03:46;99712.72;;;16.32;96.81
57068;BME280;43391;47.448;18.904;2022-07-06T04:06:11;99711.78;;;16.33;96.27
57068;BME280;43391;47.448;18.904;2022-07-06T04:08:37;99709.03;;;16.35;96.63
57068;BME280;43391;47.448;18.904;2022-07-06T04:11:02;99711.94;;;16.43;96.52
57068;BME280;43391;47.448;18.904;2022-07-06T04:13:28;99710.28;;;16.42;96.00
57068;BME280;43391;47.448;18.904;2022-07-06T04:15:53;99714.56;;;16.43;96.12
57068;BME280;43391;47.448;18.904;2022-07-06T04:18:19;99713.84;;;16.41;96.36
57068;BME280;43391;47.448;18.904;2022-07-06T04:20:49;99712.53;;;16.47;96.44
57068;BME280;43391;47.448;18.904;2022-07-06T04:23:14;99714.22;;;16.48;95.76
57068;BME280;43391;47.448;18.904;2022-07-06T04:25:40;99709.84;;;16.60;95.86
57068;BME280;43391;47.448;18.904;2022-07-06T04:28:05;99719.88;;;16.66;94.43
57068;BME280;43391;47.448;18.904;2022-07-06T04:30:31;99714.19;;;16.72;94.28
57068;BME280;43391;47.448;18.904;2022-07-06T04:32:56;99706.09;;;16.76;93.68
57068;BME280;43391;47.448;18.904;2022-07-06T04:35:22;99710.16;;;16.80;93.32
57068;BME280;43391;47.448;18.904;2022-07-06T04:37:47;99708.25;;;16.82;93.32
57068;BME280;43391;47.448;18.904;2022-07-06T04:40:13;99705.63;;;16.82;92.69
57068;BME280;43391;47.448;18.904;2022-07-06T04:42:48;99714.94;;;16.86;92.79
57068;BME280;43391;47.448;18.904;2022-07-06T04:45:13;99720.88;;;16.88;92.90
57068;BME280;43391;47.448;18.904;2022-07-06T04:47:39;99715.44;;;16.91;92.63
57068;BME280;43391;47.448;18.904;2022-07-06T04:50:05;99717.69;;;16.96;92.85
57068;BME280;43391;47.448;18.904;2022-07-06T04:52:31;99720.50;;;17.06;92.90
57068;BME280;43391;47.448;18.904;2022-07-06T04:54:57;99715.97;;;17.08;92.03
57068;BME280;43391;47.448;18.904;2022-07-06T04:57:22;99720.88;;;17.12;91.67
57068;BME280;43391;47.448;18.904;2022-07-06T04:59:48;99715.38;;;17.16;91.22
57068;BME280;43391;47.448;18.904;2022-07-06T05:02:14;99723.03;;;17.19;90.60
57068;BME280;43391;47.448;18.904;2022-07-06T05:04:39;99716.47;;;17.24;90.66
57068;BME280;43391;47.448;18.904;2022-07-06T05:07:05;99724.69;;;17.31;90.54
57068;BME280;43391;47.448;18.904;2022-07-06T05:09:30;99733.16;;;17.35;89.72
57068;BME280;43391;47.448;18.904;2022-07-06T05:11:56;99737.69;;;17.44;89.83
57068;BME280;43391;47.448;18.904;2022-07-06T05:14:21;99740.44;;;17.54;89.69
57068;BME280;43391;47.448;18.904;2022-07-06T05:16:47;99733.88;;;17.60;88.87
57068;BME280;43391;47.448;18.904;2022-07-06T05:19:12;99736.28;;;17.63;88.38
57068;BME280;43391;47.448;18.904;2022-07-06T05:21:38;99733.28;;;17.67;87.84
57068;BME280;43391;47.448;18.904;2022-07-06T05:24:03;99742.50;;;17.73;88.08
57068;BME280;43391;47.448;18.904;2022-07-06T05:26:29;99738.41;;;17.80;87.65
57068;BME280;43391;47.448;18.904;2022-07-06T05:28:55;99748.69;;;17.84;86.59
57068;BME280;43391;47.448;18.904;2022-07-06T05:31:20;99756.56;;;17.84;86.28
57068;BME280;43391;47.448;18.904;2022-07-06T05:33:46;99753.31;;;17.91;86.23
57068;BME280;43391;47.448;18.904;2022-07-06T05:36:11;99756.44;;;17.97;86.59
57068;BME280;43391;47.448;18.904;2022-07-06T05:38:37;99757.47;;;18.05;86.13
57068;BME280;43391;47.448;18.904;2022-07-06T05:41:02;99768.09;;;18.15;86.09
57068;BME280;43391;47.448;18.904;2022-07-06T05:43:27;99773.34;;;18.27;85.75
57068;BME280;43391;47.448;18.904;2022-07-06T05:45:53;99765.09;;;18.31;84.35
57068;BME280;43391;47.448;18.904;2022-07-06T05:48:18;99777.00;;;18.36;84.47
57068;BME280;43391;47.448;18.904;2022-07-06T05:51:03;99780.31;;;18.49;84.07
57068;BME280;43391;47.448;18.904;2022-07-06T05:53:29;99777.78;;;18.59;83.33
57068;BME280;43391;47.448;18.904;2022-07-06T05:55:54;99789.72;;;18.63;82.13
57068;BME280;43391;47.448;18.904;2022-07-06T05:58:20;99785.50;;;18.72;82.24
57068;BME280;43391;47.448;18.904;2022-07-06T06:00:46;99789.31;;;18.79;82.07
57068;BME280;43391;47.448;18.904;2022-07-06T06:03:12;99792.72;;;18.91;81.71
57068;BME280;43391;47.448;18.904;2022-07-06T06:05:37;99782.47;;;19.09;81.65
57068;BME280;43391;47.448;18.904;2022-07-06T06:08:03;99786.97;;;19.19;80.63
57068;BME280;43391;47.448;18.904;2022-07-06T06:10:28;99786.41;;;19.36;80.66
57068;BME280;43391;47.448;18.904;2022-07-06T06:12:54;99794.78;;;19.51;79.67
57068;BME280;43391;47.448;18.904;2022-07-06T06:15:20;99799.56;;;19.68;79.19
57068;BME280;43391;47.448;18.904;2022-07-06T06:17:45;99810.81;;;19.79;78.76
57068;BME280;43391;47.448;18.904;2022-07-06T06:20:13;99798.41;;;19.91;77.81
57068;BME280;43391;47.448;18.904;2022-07-06T06:25:13;99793.91;;;20.13;76.94
57068;BME280;43391;47.448;18.904;2022-07-06T06:27:38;99788.38;;;20.16;76.42
57068;BME280;43391;47.448;18.904;2022-07-06T06:30:04;99784.91;;;20.16;75.98
57068;BME280;43391;47.448;18.904;2022-07-06T06:32:30;99788.81;;;20.22;75.80
57068;BME280;43391;47.448;18.904;2022-07-06T06:34:55;99793.66;;;20.26;74.90
57068;BME280;43391;47.448;18.904;2022-07-06T06:37:21;99801.31;;;20.29;75.32
57068;BME280;43391;47.448;18.904;2022-07-06T06:39:46;99795.75;;;20.33;74.94
57068;BME280;43391;47.448;18.904;2022-07-06T06:42:11;99793.13;;;20.33;74.59
57068;BME280;43391;47.448;18.904;2022-07-06T06:44:37;99798.56;;;20.41;74.57
57068;BME280;43391;47.448;18.904;2022-07-06T06:47:02;99805.34;;;20.53;73.75
57068;BME280;43391;47.448;18.904;2022-07-06T06:49:28;99804.81;;;20.69;74.47
57068;BME280;43391;47.448;18.904;2022-07-06T06:51:53;99799.53;;;20.79;72.17
57068;BME280;43391;47.448;18.904;2022-07-06T06:54:19;99800.81;;;20.85;72.81
57068;BME280;43391;47.448;18.904;2022-07-06T06:56:44;99798.75;;;20.89;71.98
57068;BME280;43391;47.448;18.904;2022-07-06T06:59:09;99790.13;;;20.96;72.04
57068;BME280;43391;47.448;18.904;2022-07-06T07:01:35;99785.53;;;21.08;71.60
57068;BME280;43391;47.448;18.904;2022-07-06T07:04:00;99788.69;;;21.22;70.78
57068;BME280;43391;47.448;18.904;2022-07-06T07:06:26;99798.97;;;21.25;70.26
57068;BME280;43391;47.448;18.904;2022-07-06T07:08:51;99792.97;;;21.33;70.64
57068;BME280;43391;47.448;18.904;2022-07-06T07:11:17;99797.97;;;21.36;69.56
57068;BME280;43391;47.448;18.904;2022-07-06T07:13:42;99789.31;;;21.54;69.88
57068;BME280;43391;47.448;18.904;2022-07-06T07:16:07;99793.03;;;21.71;69.49
57068;BME280;43391;47.448;18.904;2022-07-06T07:18:33;99796.88;;;21.86;68.79
57068;BME280;43391;47.448;18.904;2022-07-06T07:20:59;99800.69;;;22.02;67.42
57068;BME280;43391;47.448;18.904;2022-07-06T07:23:24;99799.50;;;22.14;66.51
57068;BME280;43391;47.448;18.904;2022-07-06T07:25:49;99794.38;;;22.31;66.67
57068;BME280;43391;47.448;18.904;2022-07-06T07:28:15;99787.34;;;22.40;65.63
57068;BME280;43391;47.448;18.904;2022-07-06T07:30:40;99802.19;;;22.51;65.95
57068;BME280;43391;47.448;18.904;2022-07-06T07:33:06;99791.41;;;22.62;64.20
57068;BME280;43391;47.448;18.904;2022-07-06T07:35:31;99795.78;;;22.72;64.99
57068;BME280;43391;47.448;18.904;2022-07-06T07:37:57;99804.38;;;22.74;64.05
57068;BME280;43391;47.448;18.904;2022-07-06T07:40:22;99800.59;;;22.76;64.07
57068;BME280;43391;47.448;18.904;2022-07-06T07:42:48;99809.75;;;22.82;63.62
57068;BME280;43391;47.448;18.904;2022-07-06T07:45:13;99810.81;;;22.89;62.96
57068;BME280;43391;47.448;18.904;2022-07-06T07:47:39;99804.13;;;23.03;63.37
57068;BME280;43391;47.448;18.904;2022-07-06T07:50:05;99798.94;;;23.20;62.38
57068;BME280;43391;47.448;18.904;2022-07-06T07:52:31;99802.41;;;23.39;63.22
57068;BME280;43391;47.448;18.904;2022-07-06T07:55:00;99805.16;;;23.55;61.06
57068;BME280;43391;47.448;18.904;2022-07-06T07:57:26;99800.25;;;23.69;60.93
57068;BME280;43391;47.448;18.904;2022-07-06T07:59:51;99804.44;;;23.80;59.97
57068;BME280;43391;47.448;18.904;2022-07-06T08:02:17;99808.44;;;23.84;59.46
57068;BME280;43391;47.448;18.904;2022-07-06T08:04:42;99804.13;;;23.83;60.15
57068;BME280;43391;47.448;18.904;2022-07-06T08:07:08;99805.94;;;23.82;59.10
57068;BME280;43391;47.448;18.904;2022-07-06T08:09:33;99807.13;;;23.88;57.43
57068;BME280;43391;47.448;18.904;2022-07-06T08:11:59;99805.34;;;23.97;58.10
57068;BME280;43391;47.448;18.904;2022-07-06T08:14:25;99816.94;;;24.04;57.80
57068;BME280;43391;47.448;18.904;2022-07-06T08:16:56;99815.72;;;24.17;56.14
57068;BME280;43391;47.448;18.904;2022-07-06T08:19:22;99822.53;;;24.27;56.83
57068;BME280;43391;47.448;18.904;2022-07-06T08:21:48;99821.56;;;24.28;55.72
57068;BME280;43391;47.448;18.904;2022-07-06T08:24:13;99812.59;;;24.38;56.48
57068;BME280;43391;47.448;18.904;2022-07-06T08:26:39;99812.81;;;24.53;56.85
57068;BME280;43391;47.448;18.904;2022-07-06T08:29:04;99814.63;;;24.69;56.36
57068;BME280;43391;47.448;18.904;2022-07-06T08:31:30;99825.44;;;24.76;56.42
57068;BME280;43391;47.448;18.904;2022-07-06T08:33:56;99818.47;;;24.75;56.00
57068;BME280;43391;47.448;18.904;2022-07-06T08:36:25;99815.84;;;24.91;56.27
57068;BME280;43391;47.448;18.904;2022-07-06T08:38:50;99827.94;;;24.94;54.79
57068;BME280;43391;47.448;18.904;2022-07-06T08:41:17;99823.16;;;24.89;54.87
57068;BME280;43391;47.448;18.904;2022-07-06T08:43:43;99849.81;;;24.79;55.52
57068;BME280;43391;47.448;18.904;2022-07-06T08:46:08;99832.75;;;24.82;56.09
57068;BME280;43391;47.448;18.904;2022-07-06T08:48:38;99837.25;;;24.98;55.33
57068;BME280;43391;47.448;18.904;2022-07-06T08:51:05;99833.75;;;24.98;53.75
57068;BME280;43391;47.448;18.904;2022-07-06T08:53:31;99837.72;;;25.10;55.12
57068;BME280;43391;47.448;18.904;2022-07-06T08:55:56;99832.91;;;25.30;54.31
57068;BME280;43391;47.448;18.904;2022-07-06T08:58:26;99827.09;;;25.27;51.83
57068;BME280;43391;47.448;18.904;2022-07-06T09:00:56;99833.91;;;25.21;52.14
57068;BME280;43391;47.448;18.904;2022-07-06T09:03:23;99834.56;;;25.23;53.24
57068;BME280;43391;47.448;18.904;2022-07-06T09:05:50;99830.72;;;25.26;53.14
57068;BME280;43391;47.448;18.904;2022-07-06T09:08:18;99827.94;;;25.19;52.32
57068;BME280;43391;47.448;18.904;2022-07-06T09:10:48;99829.44;;;25.13;52.72
57068;BME280;43391;47.448;18.904;2022-07-06T09:13:13;99834.75;;;25.21;53.01
57068;BME280;43391;47.448;18.904;2022-07-06T09:15:38;99826.59;;;25.40;51.39
57068;BME280;43391;47.448;18.904;2022-07-06T09:18:05;99824.22;;;25.53;50.48
57068;BME280;43391;47.448;18.904;2022-07-06T09:20:32;99825.91;;;25.54;50.08
57068;BME280;43391;47.448;18.904;2022-07-06T09:23:04;99827.38;;;25.57;50.79
57068;BME280;43391;47.448;18.904;2022-07-06T09:25:30;99825.31;;;25.84;51.16
57068;BME280;43391;47.448;18.904;2022-07-06T09:27:57;99832.22;;;26.02;46.45
57068;BME280;43391;47.448;18.904;2022-07-06T09:30:25;99822.13;;;26.20;46.71
57068;BME280;43391;47.448;18.904;2022-07-06T09:32:52;99829.09;;;26.30;48.06
57068;BME280;43391;47.448;18.904;2022-07-06T09:35:36;99822.34;;;26.19;47.97
57068;BME280;43391;47.448;18.904;2022-07-06T09:38:13;99831.44;;;26.33;47.66
57068;BME280;43391;47.448;18.904;2022-07-06T09:40:43;99831.06;;;26.36;46.98
57068;BME280;43391;47.448;18.904;2022-07-06T09:43:16;99830.75;;;26.31;48.08
57068;BME280;43391;47.448;18.904;2022-07-06T09:45:45;99820.72;;;26.09;46.70
57068;BME280;43391;47.448;18.904;2022-07-06T09:48:21;99819.69;;;26.19;46.85
57068;BME280;43391;47.448;18.904;2022-07-06T09:51:00;99827.13;;;26.32;46.05
57068;BME280;43391;47.448;18.904;2022-07-06T09:53:28;99825.38;;;26.47;47.08
57068;BME280;43391;47.448;18.904;2022-07-06T09:55:55;99824.84;;;26.44;46.69
57068;BME280;43391;47.448;18.904;2022-07-06T09:58:28;99825.00;;;26.19;46.23
57068;BME280;43391;47.448;18.904;2022-07-06T10:00:54;99815.34;;;26.18;45.68
57068;BME280;43391;47.448;18.904;2022-07-06T10:03:19;99819.66;;;26.27;45.15
57068;BME280;43391;47.448;18.904;2022-07-06T10:05:46;99829.47;;;26.26;44.38
57068;BME280;43391;47.448;18.904;2022-07-06T10:08:13;99829.28;;;26.28;44.40
57068;BME280;43391;47.448;18.904;2022-07-06T10:10:40;99828.91;;;26.39;44.24
57068;BME280;43391;47.448;18.904;2022-07-06T10:13:07;99835.75;;;26.57;42.84
57068;BME280;43391;47.448;18.904;2022-07-06T10:15:35;99843.00;;;26.72;42.36
57068;BME280;43391;47.448;18.904;2022-07-06T10:18:05;99838.47;;;26.72;41.76
57068;BME280;43391;47.448;18.904;2022-07-06T10:20:34;99842.16;;;26.71;40.25
57068;BME280;43391;47.448;18.904;2022-07-06T10:23:03;99833.28;;;26.79;39.00
57068;BME280;43391;47.448;18.904;2022-07-06T10:25:29;99829.03;;;26.93;39.77
57068;BME280;43391;47.448;18.904;2022-07-06T10:27:55;99827.22;;;27.09;38.30
57068;BME280;43391;47.448;18.904;2022-07-06T10:30:22;99827.72;;;27.27;37.52
57068;BME280;43391;47.448;18.904;2022-07-06T10:32:49;99831.78;;;27.38;37.71
57068;BME280;43391;47.448;18.904;2022-07-06T10:35:16;99824.78;;;27.37;37.54
57068;BME280;43391;47.448;18.904;2022-07-06T10:37:44;99838.31;;;27.51;38.08
57068;BME280;43391;47.448;18.904;2022-07-06T10:40:09;99830.13;;;27.52;35.59
57068;BME280;43391;47.448;18.904;2022-07-06T10:42:58;99822.69;;;27.63;35.48
57068;BME280;43391;47.448;18.904;2022-07-06T10:50:41;99830.16;;;27.82;33.74
57068;BME280;43391;47.448;18.904;2022-07-06T10:53:13;99829.06;;;27.77;33.69
57068;BME280;43391;47.448;18.904;2022-07-06T10:55:41;99828.41;;;27.75;34.89
57068;BME280;43391;47.448;18.904;2022-07-06T10:58:09;99837.69;;;27.79;34.34
57068;BME280;43391;47.448;18.904;2022-07-06T11:06:26;99831.34;;;27.95;35.07
57068;BME280;43391;47.448;18.904;2022-07-06T11:08:59;99831.66;;;28.07;34.96
57068;BME280;43391;47.448;18.904;2022-07-06T11:16:37;99838.38;;;28.18;31.98
57068;BME280;43391;47.448;18.904;2022-07-06T11:19:19;99831.47;;;28.23;32.18
57068;BME280;43391;47.448;18.904;2022-07-06T11:21:46;99836.25;;;28.28;31.73
57068;BME280;43391;47.448;18.904;2022-07-06T11:24:15;99833.16;;;28.46;32.18
57068;BME280;43391;47.448;18.904;2022-07-06T11:26:50;99823.31;;;28.47;30.98
57068;BME280;43391;47.448;18.904;2022-07-06T11:29:18;99840.47;;;28.37;32.49
57068;BME280;43391;47.448;18.904;2022-07-06T11:31:47;99850.25;;;28.52;32.37
57068;BME280;43391;47.448;18.904;2022-07-06T11:34:17;99840.41;;;28.52;32.04
57068;BME280;43391;47.448;18.904;2022-07-06T11:36:43;99841.28;;;28.38;31.03
57068;BME280;43391;47.448;18.904;2022-07-06T11:39:09;99843.78;;;28.40;27.52
57068;BME280;43391;47.448;18.904;2022-07-06T11:41:34;99845.41;;;28.41;29.28
57068;BME280;43391;47.448;18.904;2022-07-06T11:44:00;99839.91;;;28.42;29.15
57068;BME280;43391;47.448;18.904;2022-07-06T11:46:28;99849.44;;;28.51;29.74
57068;BME280;43391;47.448;18.904;2022-07-06T11:48:58;99851.94;;;28.53;31.14
57068;BME280;43391;47.448;18.904;2022-07-06T11:51:25;99854.59;;;28.53;27.75
57068;BME280;43391;47.448;18.904;2022-07-06T11:53:53;99850.75;;;28.62;28.57
57068;BME280;43391;47.448;18.904;2022-07-06T11:56:27;99845.31;;;28.71;27.95
57068;BME280;43391;47.448;18.904;2022-07-06T11:58:55;99848.41;;;28.74;28.15
57068;BME280;43391;47.448;18.904;2022-07-06T12:01:22;99853.47;;;28.84;28.67
57068;BME280;43391;47.448;18.904;2022-07-06T12:03:49;99844.13;;;28.95;28.33
57068;BME280;43391;47.448;18.904;2022-07-06T12:06:32;99856.75;;;29.08;29.01
57068;BME280;43391;47.448;18.904;2022-07-06T12:08:59;99851.66;;;29.13;28.33
57068;BME280;43391;47.448;18.904;2022-07-06T12:11:28;99856.16;;;29.13;28.05
57068;BME280;43391;47.448;18.904;2022-07-06T12:13:54;99858.09;;;28.97;28.09
57068;BME280;43391;47.448;18.904;2022-07-06T12:16:21;99862.09;;;28.86;28.89
57068;BME280;43391;47.448;18.904;2022-07-06T12:18:51;99838.13;;;28.71;29.71
57068;BME280;43391;47.448;18.904;2022-07-06T12:21:20;99850.72;;;28.77;28.71
57068;BME280;43391;47.448;18.904;2022-07-06T12:23:51;99846.13;;;28.49;28.70
57068;BME280;43391;47.448;18.904;2022-07-06T12:26:22;99850.66;;;28.49;28.86
57068;BME280;43391;47.448;18.904;2022-07-06T12:29:02;99847.97;;;28.49;29.38
57068;BME280;43391;47.448;18.904;2022-07-06T12:31:38;99844.81;;;28.60;30.36
57068;BME280;43391;47.448;18.904;2022-07-06T12:34:11;99841.69;;;28.57;29.44
57068;BME280;43391;47.448;18.904;2022-07-06T12:36:58;99845.44;;;28.62;30.00
57068;BME280;43391;47.448;18.904;2022-07-06T12:39:26;99842.78;;;28.84;30.41
57068;BME280;43391;47.448;18.904;2022-07-06T12:42:01;99842.63;;;28.71;29.32
57068;BME280;43391;47.448;18.904;2022-07-06T12:44:27;99844.34;;;28.20;29.95
57068;BME280;43391;47.448;18.904;2022-07-06T12:47:04;99850.72;;;28.04;30.73
57068;BME280;43391;47.448;18.904;2022-07-06T12:49:30;99829.16;;;28.35;29.95
57068;BME280;43391;47.448;18.904;2022-07-06T12:52:14;99840.66;;;28.36;30.00
57068;BME280;43391;47.448;18.904;2022-07-06T12:54:48;99838.00;;;28.36;30.11
57068;BME280;43391;47.448;18.904;2022-07-06T12:57:21;99835.81;;;28.24;29.50
57068;BME280;43391;47.448;18.904;2022-07-06T13:02:33;99839.31;;;28.47;28.99
57068;BME280;43391;47.448;18.904;2022-07-06T13:05:11;99842.91;;;28.54;30.02
57068;BME280;43391;47.448;18.904;2022-07-06T13:07:42;99843.84;;;28.46;29.37
57068;BME280;43391;47.448;18.904;2022-07-06T13:10:10;99836.47;;;28.48;29.24
57068;BME280;43391;47.448;18.904;2022-07-06T13:12:37;99838.00;;;28.36;29.33